Time;durP1;ratioP1;P1;durP2;ratioP2;P2;SDS_P1;SDS_P2;PMS_P1;PMS_P2;Temp;Humidity;BMP_temperature;BMP_pressure;BME280_temperature;BME280_humidity;BME280_pressure;Samples;Min_cycle;Max_cycle;Signal;HPM_P1;HPM_P2
2023/01/12 00:01:24;;;;;;;16.15;2.90;;;;;;;;;;4975068;28;20211;-68
2023/01/12 00:03:51;;;;;;;16.25;3.28;;;;;;;;;;4983229;28;20191;-67
2023/01/12 00:06:18;;;;;;;10.52;2.45;;;;;;;;;;4996445;28;20686;-66
2023/01/12 00:08:44;;;;;;;14.77;3.08;;;;;;;;;;4997042;28;20233;-66
2023/01/12 00:11:09;;;;;;;15.05;3.30;;;;;;;;;;4990090;28;20616;-66
2023/01/12 00:13:34;;;;;;;12.27;2.63;;;;;;;;;;4990573;28;20190;-66
2023/01/12 00:19:18;;;;;;;14.05;2.85;;;;;;;;;;4945610;29;20204;-66
2023/01/12 00:22:00;;;;;;;14.27;2.50;;;;;;;;;;4985525;28;20238;-67
2023/01/12 00:24:40;;;;;;;11.88;2.67;;;;;;;;;;4982745;28;20265;-67
2023/01/12 00:27:11;;;;;;;16.58;3.00;;;;;;;;;;4991376;28;20858;-69
2023/01/12 00:29:36;;;;;;;8.00;2.33;;;;;;;;;;4990856;28;20631;-70
2023/01/12 00:32:04;;;;;;;7.65;2.47;;;;;;;;;;4990004;28;20187;-68
2023/01/12 00:34:29;;;;;;;10.90;2.78;;;;;;;;;;4995793;28;20656;-69
2023/01/12 00:36:54;;;;;;;12.25;3.13;;;;;;;;;;4996734;28;20200;-67
2023/01/12 00:39:21;;;;;;;8.45;2.33;;;;;;;;;;4996565;28;20196;-68
2023/01/12 00:47:15;;;;;;;5.95;2.45;;;;;;;;;;4994355;28;20187;-67
2023/01/12 00:49:41;;;;;;;5.20;2.33;;;;;;;;;;4993451;28;20273;-68
2023/01/12 00:52:10;;;;;;;6.80;2.47;;;;;;;;;;4996811;28;20328;-67
2023/01/12 00:54:35;;;;;;;10.60;2.25;;;;;;;;;;4997410;28;20263;-67
2023/01/12 00:57:02;;;;;;;8.95;2.70;;;;;;;;;;4999878;28;20395;-67
2023/01/12 00:59:28;;;;;;;6.22;2.33;;;;;;;;;;4953523;28;20192;-67
2023/01/12 01:01:54;;;;;;;10.07;2.40;;;;;;;;;;4977690;28;20238;-68
2023/01/12 01:04:19;;;;;;;9.63;2.40;;;;;;;;;;4990423;28;20212;-67
2023/01/12 01:06:45;;;;;;;8.50;2.15;;;;;;;;;;4995013;28;20874;-68
2023/01/12 01:09:11;;;;;;;7.43;2.65;;;;;;;;;;4987837;28;20183;-68
2023/01/12 01:11:37;;;;;;;5.78;2.50;;;;;;;;;;4977636;28;20192;-68
2023/01/12 01:14:02;;;;;;;9.55;3.17;;;;;;;;;;4982046;28;20518;-68
2023/01/12 01:16:28;;;;;;;9.48;2.20;;;;;;;;;;4979275;28;20180;-68
2023/01/12 01:18:54;;;;;;;10.40;2.47;;;;;;;;;;4989382;28;20180;-68
2023/01/12 01:21:20;;;;;;;5.47;2.38;;;;;;;;;;4987433;28;20574;-68
2023/01/12 01:23:45;;;;;;;5.78;2.70;;;;;;;;;;4989269;28;20207;-68
2023/01/12 01:26:13;;;;;;;7.72;2.55;;;;;;;;;;4986785;28;20236;-68
2023/01/12 01:28:40;;;;;;;7.18;2.45;;;;;;;;;;4990255;28;20215;-67
2023/01/12 01:31:13;;;;;;;11.65;2.78;;;;;;;;;;4984989;28;20797;-68
2023/01/12 01:33:40;;;;;;;5.32;2.60;;;;;;;;;;4971565;28;20592;-67
2023/01/12 01:36:06;;;;;;;12.77;3.53;;;;;;;;;;4992907;28;20187;-68
2023/01/12 01:38:31;;;;;;;7.47;3.30;;;;;;;;;;4991909;28;20548;-67
2023/01/12 01:40:57;;;;;;;13.63;3.70;;;;;;;;;;4973636;28;20487;-68
2023/01/12 01:43:24;;;;;;;9.60;4.00;;;;;;;;;;4992445;28;20191;-68
2023/01/12 01:46:02;;;;;;;11.82;4.03;;;;;;;;;;4987615;28;20223;-68
2023/01/12 01:48:32;;;;;;;9.75;3.85;;;;;;;;;;4992055;28;20266;-69
2023/01/12 01:51:03;;;;;;;12.38;4.45;;;;;;;;;;4985725;28;20199;-69
2023/01/12 01:53:31;;;;;;;10.57;4.22;;;;;;;;;;4986443;28;20192;-67
2023/01/12 01:56:04;;;;;;;15.43;4.53;;;;;;;;;;4987391;28;20183;-68
2023/01/12 01:58:35;;;;;;;15.47;4.33;;;;;;;;;;4992673;28;20192;-68
2023/01/12 02:01:00;;;;;;;15.40;4.88;;;;;;;;;;4986522;28;20230;-68
2023/01/12 02:03:27;;;;;;;13.43;4.90;;;;;;;;;;4993542;28;20179;-68
2023/01/12 02:05:54;;;;;;;17.52;4.85;;;;;;;;;;4986862;28;20304;-67
2023/01/12 02:08:27;;;;;;;18.73;5.07;;;;;;;;;;4991981;28;20183;-67
2023/01/12 02:10:55;;;;;;;23.98;6.32;;;;;;;;;;4984040;28;20274;-67
2023/01/12 02:16:19;;;;;;;18.40;5.72;;;;;;;;;;4981684;28;20194;-68
2023/01/12 02:18:59;;;;;;;25.20;7.10;;;;;;;;;;4991364;28;20217;-69
2023/01/12 02:21:51;;;;;;;16.88;6.32;;;;;;;;;;4975823;28;20632;-68
2023/01/12 02:24:16;;;;;;;16.70;5.57;;;;;;;;;;4984522;28;20295;-68
2023/01/12 02:26:54;;;;;;;14.10;5.35;;;;;;;;;;4980712;28;20305;-68
2023/01/12 02:30:04;;;;;;;18.90;6.25;;;;;;;;;;4990739;28;20207;-68
2023/01/12 02:32:42;;;;;;;18.20;6.07;;;;;;;;;;4988998;28;20190;-69
2023/01/12 02:35:20;;;;;;;21.65;6.07;;;;;;;;;;4995201;28;20530;-68
2023/01/12 02:38:03;;;;;;;18.50;6.47;;;;;;;;;;4985694;28;20195;-68
2023/01/12 02:40:32;;;;;;;20.75;5.88;;;;;;;;;;4984712;28;20188;-68
2023/01/12 02:43:24;;;;;;;16.08;5.63;;;;;;;;;;4976225;28;20420;-69
2023/01/12 02:46:02;;;;;;;20.63;6.05;;;;;;;;;;4979498;28;20696;-68
2023/01/12 02:48:51;;;;;;;18.48;5.80;;;;;;;;;;4997028;28;20187;-69
2023/01/12 02:51:32;;;;;;;23.38;6.70;;;;;;;;;;4980098;28;20203;-69
2023/01/12 02:54:01;;;;;;;15.77;5.45;;;;;;;;;;4978483;28;20227;-69
2023/01/12 02:56:33;;;;;;;14.43;5.28;;;;;;;;;;4978815;28;20196;-70
2023/01/12 02:59:03;;;;;;;15.43;5.30;;;;;;;;;;4978954;28;20183;-69
2023/01/12 03:01:32;;;;;;;15.48;4.65;;;;;;;;;;4977588;28;20216;-69
2023/01/12 03:04:01;;;;;;;13.70;4.75;;;;;;;;;;4979625;28;20278;-68
2023/01/12 03:07:07;;;;;;;15.27;3.50;;;;;;;;;;4995980;28;20729;-66
2023/01/12 03:09:40;;;;;;;11.32;3.10;;;;;;;;;;4979786;28;20664;-66
2023/01/12 03:12:10;;;;;;;11.43;2.95;;;;;;;;;;4987739;28;20194;-67
2023/01/12 03:14:39;;;;;;;8.10;2.25;;;;;;;;;;4987842;28;20195;-67
2023/01/12 03:17:11;;;;;;;9.30;2.50;;;;;;;;;;4984977;28;20286;-67
2023/01/12 03:19:38;;;;;;;8.80;2.83;;;;;;;;;;4995087;28;20245;-67
2023/01/12 03:22:08;;;;;;;10.00;2.10;;;;;;;;;;4990883;28;20253;-67
2023/01/12 03:24:42;;;;;;;8.77;2.13;;;;;;;;;;4990948;28;20383;-68
2023/01/12 03:27:21;;;;;;;10.70;1.95;;;;;;;;;;4985013;28;20199;-67
2023/01/12 03:29:56;;;;;;;8.88;1.70;;;;;;;;;;4985133;28;20199;-67
2023/01/12 03:32:22;;;;;;;8.80;2.10;;;;;;;;;;4987480;28;20236;-67
2023/01/12 03:34:48;;;;;;;8.88;1.60;;;;;;;;;;4989638;28;20180;-67
2023/01/12 03:37:23;;;;;;;9.65;1.80;;;;;;;;;;4985721;28;20225;-67
2023/01/12 03:40:00;;;;;;;5.82;1.65;;;;;;;;;;4989603;28;20218;-67
2023/01/12 03:42:40;;;;;;;9.57;2.85;;;;;;;;;;4971851;28;20262;-68
2023/01/12 03:45:40;;;;;;;9.07;1.80;;;;;;;;;;4978943;28;20631;-68
2023/01/12 03:48:12;;;;;;;9.10;1.73;;;;;;;;;;4983842;28;20593;-67
2023/01/12 03:50:48;;;;;;;7.88;1.88;;;;;;;;;;4988694;28;20191;-67
2023/01/12 03:53:17;;;;;;;7.28;1.90;;;;;;;;;;4975672;28;20287;-67
2023/01/12 03:55:45;;;;;;;7.35;1.50;;;;;;;;;;4976606;28;20188;-67
2023/01/12 03:58:10;;;;;;;8.05;1.60;;;;;;;;;;4997936;28;20261;-67
2023/01/12 04:00:37;;;;;;;8.30;1.95;;;;;;;;;;5001232;28;20483;-68
2023/01/12 04:03:13;;;;;;;3.58;1.63;;;;;;;;;;5004711;28;20248;-68
2023/01/12 04:05:40;;;;;;;7.35;1.80;;;;;;;;;;5002635;28;20222;-67
2023/01/12 04:08:06;;;;;;;7.25;1.88;;;;;;;;;;5006623;28;20183;-68
2023/01/12 04:10:32;;;;;;;7.38;1.80;;;;;;;;;;5000249;28;20191;-68
2023/01/12 04:12:57;;;;;;;8.50;2.05;;;;;;;;;;5001237;28;20206;-69
2023/01/12 04:15:22;;;;;;;10.32;1.98;;;;;;;;;;5005525;28;20325;-69
2023/01/12 04:17:48;;;;;;;7.20;2.10;;;;;;;;;;4994350;28;20666;-68
2023/01/12 04:20:13;;;;;;;9.07;2.45;;;;;;;;;;5004344;28;20281;-67
2023/01/12 04:22:42;;;;;;;14.05;2.85;;;;;;;;;;4999114;28;20273;-67
2023/01/12 04:25:08;;;;;;;14.77;2.55;;;;;;;;;;5006667;28;20222;-69
2023/01/12 04:27:34;;;;;;;11.32;3.00;;;;;;;;;;5005160;28;20684;-68
2023/01/12 04:29:59;;;;;;;10.48;1.88;;;;;;;;;;5003005;28;20261;-68
2023/01/12 04:32:24;;;;;;;9.57;1.60;;;;;;;;;;4999133;28;20234;-68
2023/01/12 04:34:50;;;;;;;10.10;2.53;;;;;;;;;;5001250;28;20179;-68
2023/01/12 04:37:15;;;;;;;9.32;1.90;;;;;;;;;;5001581;28;20285;-68
2023/01/12 04:39:41;;;;;;;9.35;1.90;;;;;;;;;;5006539;28;20281;-67
2023/01/12 04:42:59;;;;;;;7.88;2.05;;;;;;;;;;4999762;28;20324;-68
2023/01/12 04:44:51;;;;;;;6.10;1.33;;;;;;;;;;5005578;28;20202;-68
2023/01/12 04:47:16;;;;;;;10.13;1.67;;;;;;;;;;4998851;28;20210;-68
2023/01/12 04:49:42;;;;;;;11.10;2.17;;;;;;;;;;5003478;28;20646;-68
2023/01/12 04:52:07;;;;;;;10.52;2.15;;;;;;;;;;4996519;28;20198;-69
2023/01/12 04:54:33;;;;;;;10.38;2.40;;;;;;;;;;5006334;28;20187;-68
2023/01/12 04:56:58;;;;;;;8.40;1.85;;;;;;;;;;5002526;28;20580;-70
2023/01/12 04:59:23;;;;;;;12.80;2.03;;;;;;;;;;5007323;28;20243;-69
2023/01/12 05:01:49;;;;;;;7.53;2.08;;;;;;;;;;4999657;28;20187;-70
2023/01/12 05:04:14;;;;;;;7.40;1.90;;;;;;;;;;4994264;28;20194;-69
2023/01/12 05:06:39;;;;;;;7.80;1.95;;;;;;;;;;5002794;28;20202;-70
2023/01/12 05:11:51;;;;;;;7.22;1.58;;;;;;;;;;5000276;28;20595;-70
2023/01/12 05:14:16;;;;;;;6.20;1.40;;;;;;;;;;5000569;28;20183;-69
2023/01/12 05:16:42;;;;;;;10.05;1.75;;;;;;;;;;5008079;28;20191;-70
2023/01/12 05:19:07;;;;;;;6.07;1.50;;;;;;;;;;5004710;28;20191;-68
2023/01/12 05:21:33;;;;;;;9.07;1.40;;;;;;;;;;5004592;28;20194;-69
2023/01/12 05:23:58;;;;;;;9.43;1.40;;;;;;;;;;5003086;28;20673;-68
2023/01/12 05:26:23;;;;;;;4.35;1.48;;;;;;;;;;4991920;28;20299;-68
2023/01/12 05:28:50;;;;;;;5.93;1.87;;;;;;;;;;5006081;28;20194;-67
2023/01/12 05:31:16;;;;;;;8.73;1.40;;;;;;;;;;4999784;28;21996;-68
2023/01/12 05:33:41;;;;;;;4.38;1.35;;;;;;;;;;4993933;28;20191;-69
2023/01/12 05:36:09;;;;;;;7.80;1.58;;;;;;;;;;4996417;28;20199;-68
2023/01/12 05:38:35;;;;;;;7.63;1.52;;;;;;;;;;4996084;28;20199;-71
2023/01/12 05:41:02;;;;;;;8.82;1.40;;;;;;;;;;5005074;28;20205;-68
2023/01/12 05:43:49;;;;;;;7.10;1.27;;;;;;;;;;5002781;28;20198;-69
2023/01/12 05:46:15;;;;;;;8.95;1.55;;;;;;;;;;4993942;28;20691;-69
2023/01/12 05:48:40;;;;;;;9.50;1.70;;;;;;;;;;4995818;28;20480;-69
2023/01/12 05:51:07;;;;;;;8.63;1.33;;;;;;;;;;4999255;28;20322;-68
2023/01/12 05:53:33;;;;;;;10.57;1.92;;;;;;;;;;4986068;28;20196;-69
2023/01/12 05:56:04;;;;;;;7.95;1.50;;;;;;;;;;5008599;28;20187;-69
2023/01/12 05:58:29;;;;;;;5.55;1.20;;;;;;;;;;4995524;28;20219;-68
2023/01/12 06:00:55;;;;;;;7.72;1.33;;;;;;;;;;4996175;28;20231;-71
2023/01/12 06:03:20;;;;;;;7.72;1.92;;;;;;;;;;4988981;28;20254;-69
2023/01/12 06:05:52;;;;;;;9.60;2.63;;;;;;;;;;5005208;28;20577;-69
2023/01/12 06:08:18;;;;;;;5.88;1.55;;;;;;;;;;4996517;28;20194;-69
2023/01/12 06:10:44;;;;;;;6.05;1.25;;;;;;;;;;5000925;28;20265;-70
2023/01/12 06:15:59;;;;;;;6.38;1.15;;;;;;;;;;4988227;28;20207;-69
2023/01/12 06:18:24;;;;;;;6.65;1.50;;;;;;;;;;4996412;28;20217;-69
2023/01/12 06:20:49;;;;;;;9.80;1.40;;;;;;;;;;4993189;28;20235;-70
2023/01/12 06:23:15;;;;;;;7.20;1.88;;;;;;;;;;4998255;28;20276;-70
2023/01/12 06:25:40;;;;;;;7.93;1.52;;;;;;;;;;4999441;28;20788;-71
2023/01/12 06:28:05;;;;;;;5.22;1.10;;;;;;;;;;4992175;28;20202;-69
2023/01/12 06:30:31;;;;;;;4.68;1.13;;;;;;;;;;5001115;28;20752;-70
2023/01/12 06:33:00;;;;;;;7.10;1.10;;;;;;;;;;4988435;28;20191;-70
2023/01/12 06:35:25;;;;;;;6.68;0.80;;;;;;;;;;4989067;28;20668;-70
2023/01/12 06:37:55;;;;;;;5.30;1.50;;;;;;;;;;4975818;28;20200;-70
2023/01/12 06:40:20;;;;;;;4.10;0.80;;;;;;;;;;4981348;28;20229;-69
2023/01/12 06:42:46;;;;;;;4.47;1.10;;;;;;;;;;4995336;28;20539;-69
2023/01/12 06:45:11;;;;;;;6.20;0.90;;;;;;;;;;4989519;28;20226;-69
2023/01/12 06:47:48;;;;;;;4.72;0.90;;;;;;;;;;4988070;28;20682;-69
2023/01/12 06:50:14;;;;;;;5.30;0.75;;;;;;;;;;4991200;28;20194;-68
2023/01/12 06:52:39;;;;;;;6.07;0.75;;;;;;;;;;4998895;28;20268;-69
2023/01/12 06:55:05;;;;;;;6.95;1.10;;;;;;;;;;4990513;28;20606;-69
2023/01/12 06:57:30;;;;;;;4.88;1.05;;;;;;;;;;4990996;28;20205;-70
2023/01/12 06:59:56;;;;;;;5.30;1.02;;;;;;;;;;4986169;28;20214;-69
2023/01/12 07:02:21;;;;;;;5.93;1.15;;;;;;;;;;4987188;28;20201;-69
2023/01/12 07:04:47;;;;;;;5.55;1.50;;;;;;;;;;4990211;28;20222;-69
2023/01/12 07:07:12;;;;;;;8.93;1.25;;;;;;;;;;4980575;28;20199;-68
2023/01/12 07:09:37;;;;;;;4.75;1.27;;;;;;;;;;4988178;28;20219;-70
2023/01/12 07:12:04;;;;;;;6.82;1.40;;;;;;;;;;4982350;28;20180;-69
2023/01/12 07:14:29;;;;;;;6.45;1.38;;;;;;;;;;4997675;28;20786;-69
2023/01/12 07:16:55;;;;;;;4.05;0.88;;;;;;;;;;4995274;28;20195;-69
2023/01/12 07:19:20;;;;;;;4.40;0.90;;;;;;;;;;5001676;28;20190;-69
2023/01/12 07:21:48;;;;;;;4.13;1.00;;;;;;;;;;5001699;28;20226;-70
2023/01/12 07:24:13;;;;;;;4.25;2.00;;;;;;;;;;4993110;28;20218;-69
2023/01/12 07:26:39;;;;;;;2.22;0.85;;;;;;;;;;4996921;28;20266;-69
2023/01/12 07:29:04;;;;;;;2.63;0.95;;;;;;;;;;4994678;28;20195;-69
2023/01/12 07:31:30;;;;;;;2.90;0.93;;;;;;;;;;4994909;28;20265;-69
2023/01/12 07:33:55;;;;;;;4.10;1.10;;;;;;;;;;5001975;28;20193;-69
2023/01/12 07:36:21;;;;;;;2.40;0.88;;;;;;;;;;5002197;28;20604;-68
2023/01/12 07:38:46;;;;;;;5.28;1.20;;;;;;;;;;4988110;28;20186;-68
2023/01/12 07:43:56;;;;;;;3.78;1.00;;;;;;;;;;4989853;28;20199;-69
2023/01/12 07:46:22;;;;;;;3.28;1.00;;;;;;;;;;4997860;28;20215;-69
2023/01/12 07:48:48;;;;;;;4.60;1.00;;;;;;;;;;4999182;28;20210;-70
2023/01/12 07:51:13;;;;;;;3.33;1.00;;;;;;;;;;5002380;28;20186;-70
2023/01/12 07:53:39;;;;;;;3.10;1.30;;;;;;;;;;4993534;28;20661;-68
2023/01/12 07:56:04;;;;;;;5.75;1.10;;;;;;;;;;5004493;28;20194;-69
2023/01/12 07:58:30;;;;;;;5.40;1.50;;;;;;;;;;4996044;28;20395;-69
2023/01/12 08:00:59;;;;;;;3.78;1.58;;;;;;;;;;5002431;28;20256;-69
2023/01/12 08:03:25;;;;;;;3.17;1.42;;;;;;;;;;5000494;28;20190;-70
2023/01/12 08:05:51;;;;;;;4.90;1.50;;;;;;;;;;5002970;28;20622;-70
2023/01/12 08:08:16;;;;;;;5.30;1.52;;;;;;;;;;5001328;28;20201;-69
2023/01/12 08:10:42;;;;;;;4.50;1.65;;;;;;;;;;4995347;28;20214;-70
2023/01/12 08:13:08;;;;;;;4.03;1.55;;;;;;;;;;4999835;28;20200;-70
2023/01/12 08:15:38;;;;;;;2.33;1.33;;;;;;;;;;4985079;28;20795;-70
2023/01/12 08:18:16;;;;;;;2.00;1.10;;;;;;;;;;4995497;28;20598;-70
2023/01/12 08:20:42;;;;;;;5.70;1.42;;;;;;;;;;4993415;28;20658;-70
2023/01/12 08:23:22;;;;;;;2.72;1.58;;;;;;;;;;4996274;28;20187;-69
2023/01/12 08:25:55;;;;;;;2.67;1.52;;;;;;;;;;4988858;28;20605;-68
2023/01/12 08:28:44;;;;;;;3.50;1.50;;;;;;;;;;5003861;28;20811;-68
2023/01/12 08:31:13;;;;;;;2.70;1.67;;;;;;;;;;4988169;28;20179;-69
2023/01/12 08:33:39;;;;;;;4.45;1.88;;;;;;;;;;4985109;28;20210;-69
2023/01/12 08:36:07;;;;;;;2.83;1.65;;;;;;;;;;4998774;28;20197;-69
2023/01/12 08:38:33;;;;;;;2.65;1.95;;;;;;;;;;4988148;28;20215;-69
2023/01/12 08:46:31;;;;;;;2.85;2.03;;;;;;;;;;4997179;28;20318;-69
2023/01/12 08:48:56;;;;;;;4.00;2.47;;;;;;;;;;4982483;28;20660;-69
2023/01/12 08:51:22;;;;;;;6.97;2.10;;;;;;;;;;4988347;28;20254;-69
2023/01/12 08:53:47;;;;;;;3.72;1.92;;;;;;;;;;4978083;28;20225;-69
2023/01/12 08:56:13;;;;;;;2.45;2.25;;;;;;;;;;5003329;28;20320;-69
2023/01/12 08:58:39;;;;;;;4.55;2.42;;;;;;;;;;4990202;28;20222;-69
2023/01/12 09:01:07;;;;;;;3.97;2.70;;;;;;;;;;4989990;28;20214;-69
2023/01/12 09:03:32;;;;;;;5.75;2.42;;;;;;;;;;4979688;28;20275;-69
2023/01/12 09:05:58;;;;;;;3.15;2.75;;;;;;;;;;4988550;28;20286;-69
2023/01/12 09:08:23;;;;;;;3.65;2.72;;;;;;;;;;4983380;28;20220;-69
2023/01/12 09:10:48;;;;;;;4.22;3.35;;;;;;;;;;4993356;28;20195;-70
2023/01/12 09:13:14;;;;;;;3.83;2.85;;;;;;;;;;4984953;28;20326;-70
2023/01/12 09:15:40;;;;;;;4.35;2.72;;;;;;;;;;4985716;28;20402;-70
2023/01/12 09:18:05;;;;;;;6.28;3.10;;;;;;;;;;4974291;28;20238;-69
2023/01/12 09:20:32;;;;;;;3.90;3.17;;;;;;;;;;4992034;28;20187;-71
2023/01/12 09:22:57;;;;;;;4.22;3.20;;;;;;;;;;4988530;28;20184;-71
2023/01/12 09:25:23;;;;;;;6.05;3.25;;;;;;;;;;4989576;28;20276;-71
2023/01/12 09:27:48;;;;;;;5.68;3.88;;;;;;;;;;4994057;28;20270;-70
2023/01/12 09:30:14;;;;;;;5.68;3.40;;;;;;;;;;4992800;28;20195;-71
2023/01/12 09:32:39;;;;;;;8.55;4.28;;;;;;;;;;4991602;28;20623;-71
2023/01/12 09:35:05;;;;;;;7.57;4.18;;;;;;;;;;4992308;28;20187;-69
2023/01/12 09:37:30;;;;;;;7.45;4.30;;;;;;;;;;4992932;28;20540;-68
2023/01/12 09:39:56;;;;;;;6.00;4.18;;;;;;;;;;4985051;28;20199;-70
2023/01/12 09:48:07;;;;;;;7.70;5.10;;;;;;;;;;4987920;28;20242;-70
2023/01/12 09:50:40;;;;;;;7.57;4.50;;;;;;;;;;4991702;28;20192;-70
2023/01/12 09:53:27;;;;;;;5.55;4.82;;;;;;;;;;4986956;28;20192;-70
2023/01/12 09:56:19;;;;;;;7.43;4.75;;;;;;;;;;4973964;28;20633;-70
2023/01/12 09:59:15;;;;;;;4.05;3.63;;;;;;;;;;4983719;28;20196;-70
2023/01/12 10:01:41;;;;;;;5.78;3.88;;;;;;;;;;4986266;28;20287;-68
2023/01/12 10:04:06;;;;;;;6.93;4.53;;;;;;;;;;4987523;28;20199;-70
2023/01/12 10:06:34;;;;;;;4.65;3.13;;;;;;;;;;4992377;28;20269;-70
2023/01/12 10:09:02;;;;;;;6.25;2.83;;;;;;;;;;4981464;28;20242;-69
2023/01/12 10:11:51;;;;;;;5.63;2.90;;;;;;;;;;4981962;28;20278;-69
2023/01/12 10:14:22;;;;;;;5.30;2.60;;;;;;;;;;4981089;28;20198;-70
2023/01/12 10:17:26;;;;;;;4.85;2.88;;;;;;;;;;4991398;28;20270;-71
2023/01/12 10:20:16;;;;;;;4.38;2.90;;;;;;;;;;4978340;28;20203;-70
2023/01/12 10:22:54;;;;;;;3.47;2.83;;;;;;;;;;4991116;28;20270;-68
2023/01/12 10:25:34;;;;;;;2.97;2.67;;;;;;;;;;4986314;28;20245;-69
2023/01/12 10:28:10;;;;;;;5.15;2.88;;;;;;;;;;4999616;28;20184;-70
2023/01/12 10:30:38;;;;;;;2.60;2.40;;;;;;;;;;4983108;28;20187;-68
2023/01/12 10:33:11;;;;;;;4.15;3.17;;;;;;;;;;4987331;28;20226;-69
2023/01/12 10:35:55;;;;;;;5.07;3.20;;;;;;;;;;4978048;28;20192;-69
2023/01/12 10:38:29;;;;;;;3.08;2.72;;;;;;;;;;4986625;28;20188;-69
2023/01/12 10:41:15;;;;;;;3.53;2.50;;;;;;;;;;4982846;28;20203;-69
2023/01/12 10:43:43;;;;;;;3.08;2.65;;;;;;;;;;4987587;28;20287;-70
2023/01/12 10:46:13;;;;;;;5.25;2.60;;;;;;;;;;4984387;28;20215;-71
2023/01/12 10:48:47;;;;;;;4.30;3.50;;;;;;;;;;4985901;28;20643;-71
2023/01/12 10:51:48;;;;;;;4.65;3.65;;;;;;;;;;4983379;28;20638;-72
2023/01/12 10:54:19;;;;;;;2.42;2.22;;;;;;;;;;4981029;28;20515;-70
2023/01/12 10:57:11;;;;;;;3.45;2.38;;;;;;;;;;4990195;28;20188;-70
2023/01/12 10:59:38;;;;;;;3.15;2.60;;;;;;;;;;4982608;28;20219;-68
2023/01/12 11:02:07;;;;;;;2.65;2.40;;;;;;;;;;4990149;28;20207;-68
2023/01/12 11:04:38;;;;;;;2.78;2.58;;;;;;;;;;4987175;28;20192;-69
2023/01/12 11:07:13;;;;;;;3.17;2.72;;;;;;;;;;4974592;28;20579;-69
2023/01/12 11:09:40;;;;;;;2.80;2.50;;;;;;;;;;4988575;28;20207;-68
2023/01/12 11:12:22;;;;;;;3.55;2.65;;;;;;;;;;4986228;28;20191;-69
2023/01/12 11:15:00;;;;;;;2.30;2.10;;;;;;;;;;4978055;28;20198;-68
2023/01/12 11:17:50;;;;;;;2.47;2.20;;;;;;;;;;4983806;28;20358;-68
2023/01/12 11:20:15;;;;;;;3.58;2.33;;;;;;;;;;4985563;28;20587;-68
2023/01/12 11:22:44;;;;;;;2.22;2.00;;;;;;;;;;4989759;28;20554;-70
2023/01/12 11:25:14;;;;;;;5.10;1.80;;;;;;;;;;4996006;28;20250;-70
2023/01/12 11:27:49;;;;;;;4.05;2.30;;;;;;;;;;4991848;28;20191;-70
2023/01/12 11:30:16;;;;;;;3.25;2.05;;;;;;;;;;4983988;28;20253;-69
2023/01/12 11:32:48;;;;;;;2.33;2.13;;;;;;;;;;4988177;28;20207;-69
2023/01/12 11:35:13;;;;;;;2.92;2.15;;;;;;;;;;4982266;28;20191;-71
2023/01/12 11:37:41;;;;;;;2.60;2.40;;;;;;;;;;4988407;28;20191;-71
2023/01/12 11:40:32;;;;;;;2.75;2.05;;;;;;;;;;4986354;28;20218;-71
2023/01/12 11:46:12;;;;;;;1.90;1.77;;;;;;;;;;4990157;28;20602;-71
2023/01/12 11:48:45;;;;;;;1.80;1.70;;;;;;;;;;4990366;28;20186;-71
2023/01/12 11:51:12;;;;;;;1.63;1.40;;;;;;;;;;4988730;28;20546;-71
2023/01/12 11:53:39;;;;;;;1.88;1.30;;;;;;;;;;4986885;28;20762;-71
2023/01/12 11:56:27;;;;;;;1.90;1.67;;;;;;;;;;4990229;28;20187;-70
2023/01/12 11:59:22;;;;;;;2.00;1.50;;;;;;;;;;4986171;28;20238;-69
2023/01/12 12:01:58;;;;;;;1.70;1.25;;;;;;;;;;4974768;28;20257;-70
2023/01/12 12:04:40;;;;;;;1.35;1.25;;;;;;;;;;4982296;28;20179;-68
2023/01/12 12:07:32;;;;;;;1.23;1.13;;;;;;;;;;4992033;28;20186;-70
2023/01/12 12:10:19;;;;;;;1.52;1.27;;;;;;;;;;4984425;28;20193;-71
2023/01/12 12:13:40;;;;;;;0.82;0.82;;;;;;;;;;4988100;28;20191;-70
2023/01/12 12:16:14;;;;;;;0.95;0.90;;;;;;;;;;4975696;28;20703;-71
2023/01/12 12:18:57;;;;;;;1.30;1.10;;;;;;;;;;4986121;28;20199;-70
2023/01/12 12:21:28;;;;;;;1.10;1.00;;;;;;;;;;4978587;28;20682;-71
2023/01/12 12:24:13;;;;;;;1.33;1.20;;;;;;;;;;4987345;28;20188;-70
2023/01/12 12:27:10;;;;;;;1.40;1.30;;;;;;;;;;4980126;28;20304;-70
2023/01/12 12:30:01;;;;;;;1.20;1.10;;;;;;;;;;4981965;28;20219;-69
2023/01/12 12:32:44;;;;;;;1.45;1.35;;;;;;;;;;4966167;28;20234;-70
2023/01/12 12:35:39;;;;;;;1.85;1.23;;;;;;;;;;4980367;28;20531;-69
2023/01/12 12:38:40;;;;;;;1.50;1.40;;;;;;;;;;4984521;28;20195;-70
2023/01/12 12:47:29;;;;;;;2.78;1.70;;;;;;;;;;4980721;28;20226;-71
2023/01/12 12:49:56;;;;;;;1.67;1.58;;;;;;;;;;4999292;28;20752;-72
2023/01/12 12:52:24;;;;;;;2.10;1.90;;;;;;;;;;4999631;28;20188;-70
2023/01/12 12:54:52;;;;;;;1.95;1.80;;;;;;;;;;4980530;28;20202;-70
2023/01/12 12:57:18;;;;;;;2.00;1.52;;;;;;;;;;4986928;28;20237;-71
2023/01/12 12:59:58;;;;;;;1.48;1.38;;;;;;;;;;4985704;28;20671;-70
2023/01/12 13:02:52;;;;;;;1.45;1.30;;;;;;;;;;4975873;28;20194;-71
2023/01/12 13:05:47;;;;;;;2.00;1.35;;;;;;;;;;4979156;28;20223;-71
2023/01/12 13:08:19;;;;;;;1.20;1.10;;;;;;;;;;4971342;28;20196;-72
2023/01/12 13:10:54;;;;;;;1.13;1.08;;;;;;;;;;4965249;28;20557;-73
2023/01/12 13:13:34;;;;;;;1.80;1.40;;;;;;;;;;4988800;28;20187;-71
2023/01/12 13:16:18;;;;;;;1.40;1.30;;;;;;;;;;4994185;28;20191;-72
2023/01/12 13:18:49;;;;;;;1.63;1.52;;;;;;;;;;4987172;28;20651;-71
2023/01/12 13:21:31;;;;;;;2.78;1.30;;;;;;;;;;4986079;28;20238;-71
2023/01/12 13:24:09;;;;;;;1.30;1.20;;;;;;;;;;4982970;28;20219;-71
2023/01/12 13:26:34;;;;;;;1.40;1.30;;;;;;;;;;4957086;28;20342;-70
2023/01/12 13:29:21;;;;;;;1.23;1.13;;;;;;;;;;4991541;28;20269;-71
2023/01/12 13:31:47;;;;;;;1.50;1.13;;;;;;;;;;4992965;28;20196;-71
2023/01/12 13:34:31;;;;;;;1.88;1.30;;;;;;;;;;4985424;28;20307;-72
2023/01/12 13:37:18;;;;;;;1.60;1.15;;;;;;;;;;4981367;28;20228;-71
2023/01/12 13:40:17;;;;;;;2.97;1.40;;;;;;;;;;4988035;28;20196;-71
2023/01/12 13:45:29;;;;;;;1.10;1.00;;;;;;;;;;4980202;28;20210;-70
2023/01/12 13:47:55;;;;;;;1.20;1.10;;;;;;;;;;4991316;28;20195;-71
2023/01/12 13:50:24;;;;;;;1.30;1.17;;;;;;;;;;4991849;28;20197;-70
2023/01/12 13:53:00;;;;;;;3.05;1.30;;;;;;;;;;4992487;28;20191;-70
2023/01/12 13:55:28;;;;;;;1.35;1.20;;;;;;;;;;4977353;28;20513;-70
2023/01/12 13:58:15;;;;;;;1.00;0.90;;;;;;;;;;4991219;28;20270;-70
2023/01/12 14:00:41;;;;;;;1.38;1.27;;;;;;;;;;4980289;28;20210;-69
2023/01/12 14:03:21;;;;;;;0.50;0.50;;;;;;;;;;4999099;28;20265;-71
2023/01/12 14:05:58;;;;;;;0.70;0.70;;;;;;;;;;4978414;28;20294;-71
2023/01/12 14:08:44;;;;;;;0.70;0.57;;;;;;;;;;4991503;28;20194;-71
2023/01/12 14:11:35;;;;;;;0.75;0.60;;;;;;;;;;4985000;28;20203;-70
2023/01/12 14:20:16;;;;;;;0.85;0.55;;;;;;;;;;4990682;28;20200;-70
2023/01/12 14:22:42;;;;;;;0.68;0.57;;;;;;;;;;4974853;28;20564;-70
2023/01/12 14:25:17;;;;;;;1.92;0.70;;;;;;;;;;4981730;28;20232;-70
2023/01/12 14:27:56;;;;;;;1.27;0.80;;;;;;;;;;4986633;28;20191;-69
2023/01/12 14:30:24;;;;;;;0.60;0.60;;;;;;;;;;4984946;28;20195;-69
2023/01/12 14:32:50;;;;;;;2.40;0.90;;;;;;;;;;4992713;28;20199;-70
2023/01/12 14:35:21;;;;;;;1.02;0.80;;;;;;;;;;4986191;28;20283;-69
2023/01/12 14:37:58;;;;;;;0.77;0.70;;;;;;;;;;4991247;28;20597;-70
2023/01/12 14:40:33;;;;;;;1.10;1.00;;;;;;;;;;4990931;28;20191;-70
2023/01/12 14:49:03;;;;;;;1.20;1.10;;;;;;;;;;4994725;28;20192;-69
2023/01/12 14:51:36;;;;;;;1.35;1.20;;;;;;;;;;4987692;28;20278;-68
2023/01/12 14:54:04;;;;;;;1.25;1.15;;;;;;;;;;4991528;28;20248;-68
2023/01/12 14:56:42;;;;;;;1.20;1.10;;;;;;;;;;4989365;28;20218;-69
2023/01/12 14:59:22;;;;;;;1.33;1.15;;;;;;;;;;4979602;28;20729;-69
2023/01/12 15:01:48;;;;;;;1.60;1.20;;;;;;;;;;4988648;28;20179;-71
2023/01/12 15:04:20;;;;;;;1.85;1.40;;;;;;;;;;5001996;28;20193;-70
2023/01/12 15:06:57;;;;;;;1.17;1.08;;;;;;;;;;4986892;28;20229;-68
2023/01/12 15:09:31;;;;;;;1.55;1.45;;;;;;;;;;4991547;28;20193;-69
2023/01/12 15:11:57;;;;;;;1.10;1.00;;;;;;;;;;4990886;28;20227;-69
2023/01/12 15:14:25;;;;;;;1.38;1.27;;;;;;;;;;4981249;28;20230;-69
2023/01/12 15:25:34;;;;;;;1.90;1.42;;;;;;;;;;4978127;28;20234;-70
2023/01/12 15:28:01;;;;;;;1.30;1.20;;;;;;;;;;4991111;28;20190;-68
2023/01/12 15:30:27;;;;;;;1.38;1.10;;;;;;;;;;4993818;28;20188;-69
2023/01/12 15:32:53;;;;;;;1.20;1.10;;;;;;;;;;4996961;28;20187;-70
2023/01/12 15:35:22;;;;;;;1.83;1.00;;;;;;;;;;5003434;28;20273;-69
2023/01/12 15:37:49;;;;;;;2.85;1.02;;;;;;;;;;5001257;28;20317;-70
2023/01/12 15:40:15;;;;;;;1.23;1.00;;;;;;;;;;4989852;28;20180;-69
2023/01/12 15:42:41;;;;;;;1.10;0.95;;;;;;;;;;4992296;28;20717;-70
2023/01/12 15:45:18;;;;;;;2.40;1.10;;;;;;;;;;4998792;28;20211;-69
2023/01/12 15:47:44;;;;;;;1.35;1.25;;;;;;;;;;4990762;28;20290;-69
2023/01/12 15:50:09;;;;;;;2.35;1.17;;;;;;;;;;4998922;28;20262;-70
2023/01/12 15:52:35;;;;;;;1.42;1.25;;;;;;;;;;5000631;28;20752;-68
2023/01/12 15:55:00;;;;;;;1.40;1.30;;;;;;;;;;4986054;28;20175;-69
2023/01/12 15:57:26;;;;;;;2.50;1.63;;;;;;;;;;5002097;28;20193;-69
2023/01/12 15:59:51;;;;;;;1.70;1.60;;;;;;;;;;5002274;28;20910;-69
2023/01/12 16:02:30;;;;;;;2.00;1.75;;;;;;;;;;4997726;28;20195;-69
2023/01/12 16:04:55;;;;;;;1.88;1.40;;;;;;;;;;4999494;28;20217;-69
2023/01/12 16:07:20;;;;;;;1.88;1.77;;;;;;;;;;4999019;28;20198;-68
2023/01/12 16:09:46;;;;;;;4.10;1.70;;;;;;;;;;4999917;28;20192;-68